sensor_id;sensor_type;location;lat;lon;timestamp;pressure;altitude;pressure_sealevel;temperature;humidity
3960;BME280;1994;48.640;8.894;2022-11-18T00:01:23;94369.81;;;8.72;100.00
3960;BME280;1994;48.640;8.894;2022-11-18T00:03:51;94374.41;;;8.75;100.00
3960;BME280;1994;48.640;8.894;2022-11-18T00:06:22;94377.59;;;8.57;100.00
3960;BME280;1994;48.640;8.894;2022-11-18T00:08:52;94389.19;;;8.64;100.00
3960;BME280;1994;48.640;8.894;2022-11-18T00:11:32;94392.03;;;8.53;100.00
3960;BME280;1994;48.640;8.894;2022-11-18T00:14:27;94396.72;;;8.46;100.00
3960;BME280;1994;48.640;8.894;2022-11-18T00:17:04;94390.75;;;8.45;100.00
3960;BME280;1994;48.640;8.894;2022-11-18T00:19:40;94390.50;;;8.52;100.00
3960;BME280;1994;48.640;8.894;2022-11-18T00:22:16;94385.38;;;8.37;100.00
3960;BME280;1994;48.640;8.894;2022-11-18T00:24:46;94391.06;;;8.29;100.00
3960;BME280;1994;48.640;8.894;2022-11-18T00:27:17;94392.06;;;8.33;100.00
3960;BME280;1994;48.640;8.894;2022-11-18T00:29:48;94395.19;;;8.35;100.00
3960;BME280;1994;48.640;8.894;2022-11-18T00:32:17;94393.09;;;8.37;100.00
3960;BME280;1994;48.640;8.894;2022-11-18T00:34:49;94399.84;;;8.28;100.00
3960;BME280;1994;48.640;8.894;2022-11-18T00:37:20;94409.63;;;8.36;100.00
3960;BME280;1994;48.640;8.894;2022-11-18T00:39:55;94403.19;;;8.28;100.00
3960;BME280;1994;48.640;8.894;2022-11-18T00:42:31;94396.97;;;8.19;100.00
3960;BME280;1994;48.640;8.894;2022-11-18T00:45:20;94402.94;;;8.30;100.00
3960;BME280;1994;48.640;8.894;2022-11-18T00:47:46;94398.81;;;8.34;100.00
3960;BME280;1994;48.640;8.894;2022-11-18T00:50:19;94394.16;;;8.36;100.00
3960;BME280;1994;48.640;8.894;2022-11-18T00:52:46;94392.84;;;8.33;100.00
3960;BME280;1994;48.640;8.894;2022-11-18T00:55:14;94396.47;;;8.27;100.00
3960;BME280;1994;48.640;8.894;2022-11-18T01:01:27;94394.41;;;8.34;100.00
3960;BME280;1994;48.640;8.894;2022-11-18T01:03:54;94388.44;;;8.44;100.00
3960;BME280;1994;48.640;8.894;2022-11-18T01:06:24;94387.94;;;8.42;100.00
3960;BME280;1994;48.640;8.894;2022-11-18T01:12:42;94385.34;;;8.42;100.00
3960;BME280;1994;48.640;8.894;2022-11-18T01:15:29;94392.59;;;8.35;100.00
3960;BME280;1994;48.640;8.894;2022-11-18T01:21:42;94394.63;;;8.48;100.00
3960;BME280;1994;48.640;8.894;2022-11-18T01:24:13;94406.50;;;8.49;100.00
3960;BME280;1994;48.640;8.894;2022-11-18T01:26:43;94403.91;;;8.49;100.00
3960;BME280;1994;48.640;8.894;2022-11-18T01:32:54;94407.03;;;8.41;100.00
3960;BME280;1994;48.640;8.894;2022-11-18T01:35:28;94411.16;;;8.42;100.00
3960;BME280;1994;48.640;8.894;2022-11-18T01:38:00;94418.88;;;8.47;100.00
3960;BME280;1994;48.640;8.894;2022-11-18T01:40:30;94417.34;;;8.41;100.00
3960;BME280;1994;48.640;8.894;2022-11-18T01:43:15;94419.41;;;8.44;100.00
3960;BME280;1994;48.640;8.894;2022-11-18T01:45:51;94420.69;;;8.51;100.00
3960;BME280;1994;48.640;8.894;2022-11-18T01:52:05;94423.50;;;8.60;100.00
3960;BME280;1994;48.640;8.894;2022-11-18T01:54:45;94423.25;;;8.46;100.00
3960;BME280;1994;48.640;8.894;2022-11-18T01:57:16;94429.72;;;8.44;100.00
3960;BME280;1994;48.640;8.894;2022-11-18T01:59:51;94424.56;;;8.44;100.00
3960;BME280;1994;48.640;8.894;2022-11-18T02:02:24;94424.56;;;8.44;100.00
3960;BME280;1994;48.640;8.894;2022-11-18T02:04:52;94430.25;;;8.51;100.00
3960;BME280;1994;48.640;8.894;2022-11-18T02:11:13;94427.91;;;8.49;100.00
3960;BME280;1994;48.640;8.894;2022-11-18T02:17:57;94429.69;;;8.64;100.00
3960;BME280;1994;48.640;8.894;2022-11-18T02:20:36;94431.22;;;8.65;100.00
3960;BME280;1994;48.640;8.894;2022-11-18T02:33:16;94435.31;;;8.81;100.00
3960;BME280;1994;48.640;8.894;2022-11-18T02:36:20;94428.09;;;8.83;100.00
3960;BME280;1994;48.640;8.894;2022-11-18T02:42:31;94434.00;;;8.88;100.00
3960;BME280;1994;48.640;8.894;2022-11-18T02:45:09;94431.69;;;8.82;100.00
3960;BME280;1994;48.640;8.894;2022-11-18T02:51:26;94437.16;;;8.80;100.00
3960;BME280;1994;48.640;8.894;2022-11-18T02:53:59;94447.19;;;8.82;100.00
3960;BME280;1994;48.640;8.894;2022-11-18T02:56:37;94441.03;;;8.78;100.00
3960;BME280;1994;48.640;8.894;2022-11-18T03:02:54;94448.75;;;8.83;100.00
3960;BME280;1994;48.640;8.894;2022-11-18T03:05:38;94459.31;;;8.86;100.00
3960;BME280;1994;48.640;8.894;2022-11-18T03:12:37;94460.63;;;8.84;100.00
3960;BME280;1994;48.640;8.894;2022-11-18T03:16:09;94463.19;;;8.89;100.00
3960;BME280;1994;48.640;8.894;2022-11-18T03:18:43;94471.47;;;8.81;100.00
3960;BME280;1994;48.640;8.894;2022-11-18T03:21:47;94481.25;;;8.94;100.00
3960;BME280;1994;48.640;8.894;2022-11-18T03:24:31;94484.59;;;8.89;100.00
3960;BME280;1994;48.640;8.894;2022-11-18T03:27:19;94485.41;;;8.85;100.00
3960;BME280;1994;48.640;8.894;2022-11-18T03:30:07;94482.81;;;8.85;100.00
3960;BME280;1994;48.640;8.894;2022-11-18T03:33:07;94495.22;;;8.83;100.00
3960;BME280;1994;48.640;8.894;2022-11-18T03:35:50;94489.00;;;8.89;100.00
3960;BME280;1994;48.640;8.894;2022-11-18T03:42:18;94498.78;;;8.97;100.00
3960;BME280;1994;48.640;8.894;2022-11-18T03:44:53;94501.13;;;8.93;100.00
3960;BME280;1994;48.640;8.894;2022-11-18T03:47:37;94507.06;;;8.94;100.00
3960;BME280;1994;48.640;8.894;2022-11-18T03:50:25;94506.56;;;8.87;100.00
3960;BME280;1994;48.640;8.894;2022-11-18T03:53:03;94520.00;;;8.89;100.00
3960;BME280;1994;48.640;8.894;2022-11-18T03:55:40;94526.69;;;8.90;100.00
3960;BME280;1994;48.640;8.894;2022-11-18T04:02:14;94541.69;;;8.88;100.00
3960;BME280;1994;48.640;8.894;2022-11-18T04:04:54;94539.09;;;8.88;100.00
3960;BME280;1994;48.640;8.894;2022-11-18T04:11:29;94542.19;;;8.85;100.00
3960;BME280;1994;48.640;8.894;2022-11-18T04:14:18;94539.06;;;8.93;100.00
3960;BME280;1994;48.640;8.894;2022-11-18T04:16:50;94543.97;;;8.94;100.00
3960;BME280;1994;48.640;8.894;2022-11-18T04:23:08;94560.28;;;8.85;100.00
3960;BME280;1994;48.640;8.894;2022-11-18T04:29:23;94555.59;;;8.87;98.71
3960;BME280;1994;48.640;8.894;2022-11-18T04:31:51;94554.59;;;8.83;97.22
3960;BME280;1994;48.640;8.894;2022-11-18T04:34:24;94557.19;;;8.83;98.10
3960;BME280;1994;48.640;8.894;2022-11-18T04:37:00;94566.22;;;8.85;98.72
3960;BME280;1994;48.640;8.894;2022-11-18T04:42:50;94571.13;;;8.77;99.02
3960;BME280;1994;48.640;8.894;2022-11-18T04:45:20;94569.31;;;8.72;99.17
3960;BME280;1994;48.640;8.894;2022-11-18T04:47:47;94570.34;;;8.71;98.78
3960;BME280;1994;48.640;8.894;2022-11-18T04:50:15;94566.72;;;8.72;98.06
3960;BME280;1994;48.640;8.894;2022-11-18T04:52:48;94573.72;;;8.67;98.02
3960;BME280;1994;48.640;8.894;2022-11-18T04:55:18;94572.13;;;8.66;97.81
3960;BME280;1994;48.640;8.894;2022-11-18T05:01:28;94568.56;;;8.62;99.32
3960;BME280;1994;48.640;8.894;2022-11-18T05:04:06;94564.44;;;8.61;99.38
3960;BME280;1994;48.640;8.894;2022-11-18T05:06:39;94573.97;;;8.60;99.56
3960;BME280;1994;48.640;8.894;2022-11-18T05:12:59;94576.78;;;8.59;99.65
3960;BME280;1994;48.640;8.894;2022-11-18T05:19:10;94580.16;;;8.54;100.00
3960;BME280;1994;48.640;8.894;2022-11-18T05:21:49;94588.13;;;8.33;98.86
3960;BME280;1994;48.640;8.894;2022-11-18T05:24:17;94592.78;;;8.46;99.36
3960;BME280;1994;48.640;8.894;2022-11-18T05:27:01;94599.47;;;8.37;99.60
3960;BME280;1994;48.640;8.894;2022-11-18T05:29:29;94601.28;;;8.46;99.31
3960;BME280;1994;48.640;8.894;2022-11-18T05:31:56;94602.59;;;8.39;99.39
3960;BME280;1994;48.640;8.894;2022-11-18T05:34:22;94610.84;;;8.41;99.67
3960;BME280;1994;48.640;8.894;2022-11-18T05:36:53;94612.91;;;8.49;99.80
3960;BME280;1994;48.640;8.894;2022-11-18T05:43:07;94611.34;;;8.28;98.58
3960;BME280;1994;48.640;8.894;2022-11-18T05:49:21;94619.50;;;8.10;98.58
3960;BME280;1994;48.640;8.894;2022-11-18T05:51:48;94608.66;;;8.03;98.56
3960;BME280;1994;48.640;8.894;2022-11-18T05:54:24;94615.38;;;8.09;98.69
3960;BME280;1994;48.640;8.894;2022-11-18T05:57:02;94629.56;;;8.06;98.29
3960;BME280;1994;48.640;8.894;2022-11-18T06:03:20;94621.53;;;7.98;100.00
3960;BME280;1994;48.640;8.894;2022-11-18T06:05:53;94635.47;;;7.97;100.00
3960;BME280;1994;48.640;8.894;2022-11-18T06:08:29;94635.94;;;7.89;100.00
3960;BME280;1994;48.640;8.894;2022-11-18T06:11:03;94624.59;;;7.85;100.00
3960;BME280;1994;48.640;8.894;2022-11-18T06:13:48;94640.50;;;7.72;100.00
3960;BME280;1994;48.640;8.894;2022-11-18T06:16:22;94642.53;;;7.65;100.00
3960;BME280;1994;48.640;8.894;2022-11-18T06:22:37;94649.78;;;7.68;100.00
3960;BME280;1994;48.640;8.894;2022-11-18T06:25:05;94643.09;;;7.72;100.00
3960;BME280;1994;48.640;8.894;2022-11-18T06:27:32;94647.09;;;7.48;100.00
3960;BME280;1994;48.640;8.894;2022-11-18T06:30:09;94654.09;;;7.57;100.00
3960;BME280;1994;48.640;8.894;2022-11-18T06:32:46;94654.78;;;7.43;100.00
3960;BME280;1994;48.640;8.894;2022-11-18T06:35:20;94651.25;;;7.54;100.00
3960;BME280;1994;48.640;8.894;2022-11-18T06:37:50;94657.47;;;7.58;100.00
3960;BME280;1994;48.640;8.894;2022-11-18T06:40:17;94673.47;;;7.65;100.00
3960;BME280;1994;48.640;8.894;2022-11-18T06:42:44;94673.97;;;7.62;100.00
3960;BME280;1994;48.640;8.894;2022-11-18T06:45:33;94672.13;;;7.57;100.00
3960;BME280;1994;48.640;8.894;2022-11-18T06:51:44;94684.16;;;7.42;100.00
3960;BME280;1994;48.640;8.894;2022-11-18T06:54:18;94694.94;;;7.39;100.00
3960;BME280;1994;48.640;8.894;2022-11-18T06:56:49;94690.34;;;7.46;100.00
3960;BME280;1994;48.640;8.894;2022-11-18T07:03:01;94704.78;;;7.42;100.00
3960;BME280;1994;48.640;8.894;2022-11-18T07:05:39;94708.84;;;7.38;100.00
3960;BME280;1994;48.640;8.894;2022-11-18T07:08:16;94709.34;;;7.35;100.00
3960;BME280;1994;48.640;8.894;2022-11-18T07:14:24;94715.06;;;7.42;100.00
3960;BME280;1994;48.640;8.894;2022-11-18T07:16:55;94720.78;;;7.49;100.00
3960;BME280;1994;48.640;8.894;2022-11-18T07:19:21;94721.84;;;7.53;100.00
3960;BME280;1994;48.640;8.894;2022-11-18T07:21:49;94730.38;;;7.58;100.00
3960;BME280;1994;48.640;8.894;2022-11-18T07:24:18;94725.06;;;7.75;100.00
3960;BME280;1994;48.640;8.894;2022-11-18T07:26:48;94726.16;;;7.89;100.00
3960;BME280;1994;48.640;8.894;2022-11-18T07:32:44;94734.53;;;8.11;100.00
3960;BME280;1994;48.640;8.894;2022-11-18T07:35:11;94735.59;;;8.15;100.00
3960;BME280;1994;48.640;8.894;2022-11-18T07:41:21;94743.63;;;7.77;100.00
3960;BME280;1994;48.640;8.894;2022-11-18T07:43:53;94755.00;;;7.81;100.00
3960;BME280;1994;48.640;8.894;2022-11-18T07:46:41;94752.59;;;7.69;100.00
3960;BME280;1994;48.640;8.894;2022-11-18T07:52:58;94767.41;;;7.89;100.00
3960;BME280;1994;48.640;8.894;2022-11-18T07:55:35;94770.25;;;7.92;100.00
3960;BME280;1994;48.640;8.894;2022-11-18T08:01:35;94774.78;;;8.17;99.82
3960;BME280;1994;48.640;8.894;2022-11-18T08:04:16;94779.41;;;8.10;99.93
3960;BME280;1994;48.640;8.894;2022-11-18T08:06:43;94780.47;;;8.14;100.00
3960;BME280;1994;48.640;8.894;2022-11-18T08:12:58;94780.91;;;8.01;100.00
3960;BME280;1994;48.640;8.894;2022-11-18T08:15:31;94782.47;;;8.02;100.00
3960;BME280;1994;48.640;8.894;2022-11-18T08:18:01;94788.16;;;8.09;100.00
3960;BME280;1994;48.640;8.894;2022-11-18T08:20:39;94795.38;;;8.07;100.00
3960;BME280;1994;48.640;8.894;2022-11-18T08:23:12;94795.09;;;8.03;100.00
3960;BME280;1994;48.640;8.894;2022-11-18T08:25:40;94796.94;;;8.08;100.00
3960;BME280;1994;48.640;8.894;2022-11-18T08:28:11;94796.41;;;8.11;100.00
3960;BME280;1994;48.640;8.894;2022-11-18T08:30:42;94804.66;;;8.08;100.00
3960;BME280;1994;48.640;8.894;2022-11-18T08:36:51;94799.97;;;8.00;100.00
3960;BME280;1994;48.640;8.894;2022-11-18T08:39:23;94806.13;;;7.94;100.00
3960;BME280;1994;48.640;8.894;2022-11-18T08:41:59;94809.78;;;8.03;100.00
3960;BME280;1994;48.640;8.894;2022-11-18T08:44:29;94808.22;;;7.97;100.00
3960;BME280;1994;48.640;8.894;2022-11-18T08:47:00;94809.34;;;8.16;100.00
3960;BME280;1994;48.640;8.894;2022-11-18T08:49:30;94807.28;;;8.13;100.00
3960;BME280;1994;48.640;8.894;2022-11-18T08:51:59;94819.00;;;8.25;100.00
3960;BME280;1994;48.640;8.894;2022-11-18T08:54:30;94815.59;;;8.20;100.00
3960;BME280;1994;48.640;8.894;2022-11-18T08:57:00;94821.44;;;8.10;100.00
3960;BME280;1994;48.640;8.894;2022-11-18T09:03:14;94823.41;;;8.35;100.00
3960;BME280;1994;48.640;8.894;2022-11-18T09:05:44;94831.41;;;8.33;100.00
3960;BME280;1994;48.640;8.894;2022-11-18T09:08:11;94848.66;;;8.28;100.00
3960;BME280;1994;48.640;8.894;2022-11-18T09:10:44;94833.78;;;8.45;100.00
3960;BME280;1994;48.640;8.894;2022-11-18T09:13:14;94833.81;;;8.55;100.00
3960;BME280;1994;48.640;8.894;2022-11-18T09:15:47;94838.00;;;8.66;100.00
3960;BME280;1994;48.640;8.894;2022-11-18T09:21:57;94845.44;;;8.57;100.00
3960;BME280;1994;48.640;8.894;2022-11-18T09:24:26;94838.47;;;8.58;100.00
3960;BME280;1994;48.640;8.894;2022-11-18T09:26:56;94843.16;;;8.61;100.00
3960;BME280;1994;48.640;8.894;2022-11-18T09:32:51;94841.19;;;8.83;100.00
3960;BME280;1994;48.640;8.894;2022-11-18T09:35:22;94839.06;;;8.75;100.00
3960;BME280;1994;48.640;8.894;2022-11-18T09:50:01;94857.78;;;9.07;100.00
3960;BME280;1994;48.640;8.894;2022-11-18T09:52:38;94856.25;;;9.11;100.00
3960;BME280;1994;48.640;8.894;2022-11-18T09:55:16;94852.66;;;9.27;100.00
3960;BME280;1994;48.640;8.894;2022-11-18T09:57:54;94871.28;;;9.34;98.71
3960;BME280;1994;48.640;8.894;2022-11-18T10:00:27;94863.56;;;9.54;98.95
3960;BME280;1994;48.640;8.894;2022-11-18T10:12:38;94868.78;;;10.24;95.21
3960;BME280;1994;48.640;8.894;2022-11-18T10:15:38;94865.13;;;10.35;94.35
3960;BME280;1994;48.640;8.894;2022-11-18T10:18:36;94867.19;;;10.38;93.99
3960;BME280;1994;48.640;8.894;2022-11-18T10:24:23;94879.38;;;10.32;95.38
3960;BME280;1994;48.640;8.894;2022-11-18T10:27:07;94878.47;;;10.77;93.27
3960;BME280;1994;48.640;8.894;2022-11-18T10:33:26;94890.34;;;10.88;90.63
3960;BME280;1994;48.640;8.894;2022-11-18T10:39:10;94889.38;;;10.74;89.54
3960;BME280;1994;48.640;8.894;2022-11-18T10:41:50;94892.75;;;10.64;90.28
3960;BME280;1994;48.640;8.894;2022-11-18T10:44:41;94889.66;;;10.57;90.14
3960;BME280;1994;48.640;8.894;2022-11-18T10:47:28;94893.03;;;10.63;92.26
3960;BME280;1994;48.640;8.894;2022-11-18T10:50:25;94901.53;;;10.73;94.91
3960;BME280;1994;48.640;8.894;2022-11-18T10:53:04;94902.84;;;10.66;93.55
3960;BME280;1994;48.640;8.894;2022-11-18T10:55:38;94900.78;;;10.68;94.36
3960;BME280;1994;48.640;8.894;2022-11-18T10:58:13;94906.47;;;10.65;94.23
3960;BME280;1994;48.640;8.894;2022-11-18T11:00:48;94901.84;;;10.52;93.49
3960;BME280;1994;48.640;8.894;2022-11-18T11:06:35;94915.31;;;10.54;94.92
3960;BME280;1994;48.640;8.894;2022-11-18T11:13:00;94916.78;;;10.85;91.43
3960;BME280;1994;48.640;8.894;2022-11-18T11:19:15;94906.16;;;10.86;89.79
3960;BME280;1994;48.640;8.894;2022-11-18T11:21:46;94900.22;;;10.86;88.41
3960;BME280;1994;48.640;8.894;2022-11-18T11:24:14;94899.84;;;11.07;87.69
3960;BME280;1994;48.640;8.894;2022-11-18T11:26:53;94907.91;;;11.06;84.81
3960;BME280;1994;48.640;8.894;2022-11-18T11:33:25;94922.41;;;11.12;83.38
3960;BME280;1994;48.640;8.894;2022-11-18T11:43:06;94927.91;;;10.85;85.83
3960;BME280;1994;48.640;8.894;2022-11-18T11:46:03;94919.91;;;10.77;85.69
3960;BME280;1994;48.640;8.894;2022-11-18T11:52:20;94914.50;;;11.37;84.57
3960;BME280;1994;48.640;8.894;2022-11-18T11:55:24;94920.91;;;11.98;82.69
3960;BME280;1994;48.640;8.894;2022-11-18T12:02:17;94921.97;;;11.92;80.86
3960;BME280;1994;48.640;8.894;2022-11-18T12:19:35;94928.97;;;11.43;82.83
3960;BME280;1994;48.640;8.894;2022-11-18T12:22:14;94945.56;;;11.47;82.82
3960;BME280;1994;48.640;8.894;2022-11-18T12:24:47;94938.84;;;11.46;81.98
3960;BME280;1994;48.640;8.894;2022-11-18T12:30:17;94935.78;;;11.34;80.31
3960;BME280;1994;48.640;8.894;2022-11-18T12:32:45;94937.84;;;11.32;80.59
3960;BME280;1994;48.640;8.894;2022-11-18T12:35:27;94938.38;;;11.34;79.75
3960;BME280;1994;48.640;8.894;2022-11-18T12:48:32;94955.34;;;11.65;75.46
3960;BME280;1994;48.640;8.894;2022-11-18T12:53:51;94949.19;;;12.33;71.92
3960;BME280;1994;48.640;8.894;2022-11-18T12:56:26;94950.66;;;12.10;74.52
3960;BME280;1994;48.640;8.894;2022-11-18T13:02:27;94951.44;;;11.67;74.21
3960;BME280;1994;48.640;8.894;2022-11-18T13:11:20;94962.91;;;11.51;77.47
3960;BME280;1994;48.640;8.894;2022-11-18T13:17:47;94956.53;;;11.34;76.33
3960;BME280;1994;48.640;8.894;2022-11-18T13:20:38;94956.03;;;11.27;76.02
3960;BME280;1994;48.640;8.894;2022-11-18T13:26:31;94963.28;;;11.30;76.01
3960;BME280;1994;48.640;8.894;2022-11-18T13:32:47;94964.34;;;11.19;76.12
3960;BME280;1994;48.640;8.894;2022-11-18T13:35:23;94954.50;;;11.16;76.16
3960;BME280;1994;48.640;8.894;2022-11-18T13:41:37;94961.78;;;11.09;76.30
3960;BME280;1994;48.640;8.894;2022-11-18T13:47:39;94970.09;;;11.06;77.47
3960;BME280;1994;48.640;8.894;2022-11-18T13:56:22;94970.09;;;11.06;76.40
3960;BME280;1994;48.640;8.894;2022-11-18T14:02:39;94977.69;;;10.77;77.90
3960;BME280;1994;48.640;8.894;2022-11-18T14:05:23;94978.44;;;10.78;78.39
3960;BME280;1994;48.640;8.894;2022-11-18T14:11:41;94989.09;;;10.61;80.64
3960;BME280;1994;48.640;8.894;2022-11-18T14:14:10;94982.88;;;10.57;80.50
3960;BME280;1994;48.640;8.894;2022-11-18T14:16:44;94982.88;;;10.67;80.19
3960;BME280;1994;48.640;8.894;2022-11-18T14:23:11;94983.59;;;10.98;76.85
3960;BME280;1994;48.640;8.894;2022-11-18T14:29:25;94984.09;;;11.00;76.36
3960;BME280;1994;48.640;8.894;2022-11-18T14:32:13;94998.63;;;11.01;76.91
3960;BME280;1994;48.640;8.894;2022-11-18T14:34:44;94997.09;;;10.80;77.12
3960;BME280;1994;48.640;8.894;2022-11-18T14:37:15;94997.09;;;10.85;76.73
3960;BME280;1994;48.640;8.894;2022-11-18T14:43:25;94997.13;;;10.60;78.17
3960;BME280;1994;48.640;8.894;2022-11-18T14:46:05;94997.09;;;10.50;78.70
3960;BME280;1994;48.640;8.894;2022-11-18T14:52:19;94998.16;;;10.34;79.02
3960;BME280;1994;48.640;8.894;2022-11-18T14:54:52;94998.69;;;10.31;78.62
3960;BME280;1994;48.640;8.894;2022-11-18T14:57:24;95003.84;;;10.26;78.70
3960;BME280;1994;48.640;8.894;2022-11-18T14:59:58;95005.91;;;10.29;78.85
3960;BME280;1994;48.640;8.894;2022-11-18T15:02:30;95003.84;;;10.21;79.18
3960;BME280;1994;48.640;8.894;2022-11-18T15:04:58;95014.69;;;10.18;79.61
3960;BME280;1994;48.640;8.894;2022-11-18T15:07:25;95016.75;;;10.06;80.38
3960;BME280;1994;48.640;8.894;2022-11-18T15:09:53;95022.41;;;10.03;80.87
3960;BME280;1994;48.640;8.894;2022-11-18T15:12:20;95024.97;;;9.88;81.99
3960;BME280;1994;48.640;8.894;2022-11-18T15:14:48;95031.16;;;9.82;82.52
3960;BME280;1994;48.640;8.894;2022-11-18T15:17:17;95028.28;;;9.73;82.58
3960;BME280;1994;48.640;8.894;2022-11-18T15:23:28;95034.97;;;9.64;83.14
3960;BME280;1994;48.640;8.894;2022-11-18T15:26:01;95037.75;;;9.53;83.77
3960;BME280;1994;48.640;8.894;2022-11-18T15:28:37;95040.34;;;9.48;84.35
3960;BME280;1994;48.640;8.894;2022-11-18T15:31:10;95040.56;;;9.41;84.98
3960;BME280;1994;48.640;8.894;2022-11-18T15:33:40;95037.69;;;9.33;85.45
3960;BME280;1994;48.640;8.894;2022-11-18T15:36:27;95041.31;;;9.32;85.85
3960;BME280;1994;48.640;8.894;2022-11-18T15:42:41;95042.81;;;9.23;87.22
3960;BME280;1994;48.640;8.894;2022-11-18T15:45:13;95038.44;;;9.23;86.53
3960;BME280;1994;48.640;8.894;2022-11-18T15:47:47;95050.81;;;9.21;86.53
3960;BME280;1994;48.640;8.894;2022-11-18T15:50:30;95044.28;;;9.14;86.60
3960;BME280;1994;48.640;8.894;2022-11-18T15:53:05;95046.84;;;9.09;87.16
3960;BME280;1994;48.640;8.894;2022-11-18T15:55:33;95058.41;;;8.96;87.38
3960;BME280;1994;48.640;8.894;2022-11-18T16:01:47;95051.75;;;8.69;88.74
3960;BME280;1994;48.640;8.894;2022-11-18T16:04:18;95053.78;;;8.62;88.75
3960;BME280;1994;48.640;8.894;2022-11-18T16:06:48;95059.88;;;8.51;89.29
3960;BME280;1994;48.640;8.894;2022-11-18T16:12:57;95059.78;;;8.41;90.50
3960;BME280;1994;48.640;8.894;2022-11-18T16:15:24;95066.50;;;8.42;90.87
3960;BME280;1994;48.640;8.894;2022-11-18T16:21:55;95062.38;;;8.41;89.83
3960;BME280;1994;48.640;8.894;2022-11-18T16:24:26;95067.66;;;8.29;90.11
3960;BME280;1994;48.640;8.894;2022-11-18T16:27:00;95064.16;;;8.14;90.09
3960;BME280;1994;48.640;8.894;2022-11-18T16:33:13;95067.34;;;8.21;89.92
3960;BME280;1994;48.640;8.894;2022-11-18T16:35:48;95067.16;;;8.06;90.20
3960;BME280;1994;48.640;8.894;2022-11-18T16:42:01;95071.69;;;7.72;90.98
3960;BME280;1994;48.640;8.894;2022-11-18T16:44:31;95076.47;;;7.42;91.83
3960;BME280;1994;48.640;8.894;2022-11-18T16:47:00;95075.59;;;7.32;92.25
3960;BME280;1994;48.640;8.894;2022-11-18T16:49:37;95093.19;;;7.40;91.76
3960;BME280;1994;48.640;8.894;2022-11-18T16:52:04;95090.44;;;7.25;91.71
3960;BME280;1994;48.640;8.894;2022-11-18T16:54:34;95098.72;;;7.10;92.22
3960;BME280;1994;48.640;8.894;2022-11-18T16:57:05;95098.41;;;7.07;92.13
3960;BME280;1994;48.640;8.894;2022-11-18T17:03:14;95105.44;;;6.95;91.65
3960;BME280;1994;48.640;8.894;2022-11-18T17:05:42;95106.53;;;6.99;91.97
3960;BME280;1994;48.640;8.894;2022-11-18T17:08:09;95106.63;;;7.04;92.27
3960;BME280;1994;48.640;8.894;2022-11-18T17:10:38;95111.69;;;6.99;92.63
3960;BME280;1994;48.640;8.894;2022-11-18T17:13:06;95114.78;;;7.01;92.45
3960;BME280;1994;48.640;8.894;2022-11-18T17:15:35;95110.06;;;6.93;93.01
3960;BME280;1994;48.640;8.894;2022-11-18T17:21:52;95119.34;;;6.94;93.52
3960;BME280;1994;48.640;8.894;2022-11-18T17:24:21;95128.28;;;7.08;92.58
3960;BME280;1994;48.640;8.894;2022-11-18T17:26:53;95125.16;;;7.06;92.92
3960;BME280;1994;48.640;8.894;2022-11-18T17:32:54;95123.22;;;7.13;92.44
3960;BME280;1994;48.640;8.894;2022-11-18T17:35:22;95128.03;;;7.26;92.28
3960;BME280;1994;48.640;8.894;2022-11-18T17:41:39;95136.00;;;7.41;91.57
3960;BME280;1994;48.640;8.894;2022-11-18T17:44:25;95141.75;;;7.48;91.34
3960;BME280;1994;48.640;8.894;2022-11-18T17:46:53;95133.53;;;7.51;91.03
3960;BME280;1994;48.640;8.894;2022-11-18T17:49:22;95133.78;;;7.49;91.13
3960;BME280;1994;48.640;8.894;2022-11-18T17:51:52;95129.88;;;7.47;90.86
3960;BME280;1994;48.640;8.894;2022-11-18T17:58:19;95138.88;;;7.66;91.04
3960;BME280;1994;48.640;8.894;2022-11-18T18:00:49;95137.31;;;7.86;92.38
3960;BME280;1994;48.640;8.894;2022-11-18T18:03:18;95138.00;;;7.77;90.50
3960;BME280;1994;48.640;8.894;2022-11-18T18:05:45;95141.22;;;7.67;89.32
3960;BME280;1994;48.640;8.894;2022-11-18T18:11:59;95145.00;;;7.60;89.92
3960;BME280;1994;48.640;8.894;2022-11-18T18:14:49;95148.09;;;7.62;89.36
3960;BME280;1994;48.640;8.894;2022-11-18T18:17:19;95149.69;;;7.63;89.58
3960;BME280;1994;48.640;8.894;2022-11-18T18:19:50;95147.50;;;7.55;89.85
3960;BME280;1994;48.640;8.894;2022-11-18T18:22:19;95156.84;;;7.61;89.85
3960;BME280;1994;48.640;8.894;2022-11-18T18:24:49;95162.97;;;7.55;90.00
3960;BME280;1994;48.640;8.894;2022-11-18T18:27:17;95153.63;;;7.32;90.90
3960;BME280;1994;48.640;8.894;2022-11-18T18:29:50;95161.91;;;7.34;91.69
3960;BME280;1994;48.640;8.894;2022-11-18T18:32:26;95168.00;;;7.28;91.65
3960;BME280;1994;48.640;8.894;2022-11-18T18:34:55;95170.97;;;7.37;92.03
3960;BME280;1994;48.640;8.894;2022-11-18T18:37:26;95172.38;;;7.28;92.30
3960;BME280;1994;48.640;8.894;2022-11-18T18:39:59;95169.56;;;7.29;92.73
3960;BME280;1994;48.640;8.894;2022-11-18T18:42:29;95176.28;;;7.14;93.48
3960;BME280;1994;48.640;8.894;2022-11-18T18:44:58;95189.69;;;7.16;93.63
3960;BME280;1994;48.640;8.894;2022-11-18T18:51:10;95179.06;;;7.29;93.31
3960;BME280;1994;48.640;8.894;2022-11-18T18:53:38;95176.28;;;7.14;93.87
3960;BME280;1994;48.640;8.894;2022-11-18T18:56:10;95171.75;;;7.21;93.60
3960;BME280;1994;48.640;8.894;2022-11-18T18:58:41;95177.84;;;7.15;94.11
3960;BME280;1994;48.640;8.894;2022-11-18T19:01:12;95185.78;;;7.13;94.04
3960;BME280;1994;48.640;8.894;2022-11-18T19:03:45;95184.56;;;7.16;94.15
3960;BME280;1994;48.640;8.894;2022-11-18T19:06:29;95185.66;;;7.20;93.27
3960;BME280;1994;48.640;8.894;2022-11-18T19:12:41;95188.75;;;7.22;93.80
3960;BME280;1994;48.640;8.894;2022-11-18T19:15:13;95192.03;;;7.34;93.29
3960;BME280;1994;48.640;8.894;2022-11-18T19:17:46;95192.34;;;7.37;93.28
3960;BME280;1994;48.640;8.894;2022-11-18T19:20:14;95197.03;;;7.24;93.88
3960;BME280;1994;48.640;8.894;2022-11-18T19:23:05;95197.50;;;7.21;94.80
3960;BME280;1994;48.640;8.894;2022-11-18T19:25:37;95201.09;;;7.20;95.40
3960;BME280;1994;48.640;8.894;2022-11-18T19:31:48;95201.53;;;7.50;94.23
3960;BME280;1994;48.640;8.894;2022-11-18T19:34:25;95201.72;;;7.43;94.61
3960;BME280;1994;48.640;8.894;2022-11-18T19:36:52;95193.72;;;7.45;94.55
3960;BME280;1994;48.640;8.894;2022-11-18T19:42:55;95196.22;;;7.40;95.21
3960;BME280;1994;48.640;8.894;2022-11-18T19:45:31;95193.28;;;7.48;95.28
3960;BME280;1994;48.640;8.894;2022-11-18T19:51:25;95201.16;;;7.41;95.02
3960;BME280;1994;48.640;8.894;2022-11-18T19:53:55;95199.84;;;7.39;95.06
3960;BME280;1994;48.640;8.894;2022-11-18T19:56:26;95196.56;;;7.27;94.97
3960;BME280;1994;48.640;8.894;2022-11-18T20:02:39;95196.81;;;7.42;94.45
3960;BME280;1994;48.640;8.894;2022-11-18T20:05:07;95197.88;;;7.46;93.85